Thunder radar more information blitzortung!


Radar de pluja more information rain snow radar


Visita la nostra xarxa de llocs de meteo:

Template documentation
and downloads

And another site



No particular awareness of the weather is required.    There are no Weather-warnings

Pagina Historial Weather Underground text

Diari Resum Agost 27, 2017 Unitats:  Imperial    Mètric   Tant
« Previous Dia
SegĂźent Dia »
Diari Setmana Mensual Anual Personalitzada
  Maxima: Minima: Media:
Temperatura: TemperatureC °F 21.0 °F 26.8 °F
Punt de rosada: DewpointC °F 16.8 °F 19.4 °F
Humitat: Humidity % 49 % 65 %
Wind Speed: WindSpeedKMH mph 0.0 mph 7.4 mph
RĂ fegues de vent: WindSpeedGustKMH mph - -
Vent:- - SSE
Pression baro: PressurehPa in 1012.8 in -
Precipitacions: 0.0 in    
Historical Graphs
 
 
Dades de taula per Agost 27, 2017
Temps Temperatura Punt de rosada Pression baro Vent Wind Speed RĂ fegues de vent Humitat Rainfall Rate (Hourly)
TemperatureC °F DewpointC °F PressurehPa in Calm     Humidity % HourlyPrecipMM in
00:03 24.2 °F 19.5 °F 1014.8 in East 3.7 mph 3.7 mph 75 % 0.0 in
00:05 22.4 °F 19.0 °F 1013.8 in Calm   3.2 mph 81 % 0.0 in
00:08 24.2 °F 19.5 °F 1014.8 in East 4.2 mph 4.2 mph 75 % 0.0 in
00:15 22.4 °F 19.0 °F 1013.8 in Calm     81 % 0.0 in
00:25 22.4 °F 19.0 °F 1013.8 in Calm   1.6 mph 81 % 0.0 in
00:35 22.4 °F 19.2 °F 1014.8 in Calm     82 % 0.0 in
00:45 22.4 °F 19.2 °F 1014.8 in WNW 1.6 mph 1.6 mph 82 % 0.0 in
00:55 22.4 °F 19.2 °F 1014.8 in NNW 1.6 mph 3.2 mph 82 % 0.0 in
01:05 22.3 °F 18.9 °F 1013.8 in NNE 1.6 mph 4.8 mph 81 % 0.0 in
01:15 22.0 °F 18.6 °F 1013.8 in Calm   3.2 mph 81 % 0.0 in
01:25 21.8 °F 18.6 °F 1013.8 in Calm     82 % 0.0 in
01:35 21.8 °F 18.6 °F 1014.8 in Calm     82 % 0.0 in
01:45 21.7 °F 18.5 °F 1014.8 in SW 1.6 mph 3.2 mph 82 % 0.0 in
01:55 21.7 °F 18.7 °F 1014.8 in Calm   1.6 mph 83 % 0.0 in
02:05 21.6 °F 18.8 °F 1013.8 in Calm     84 % 0.0 in
02:15 21.6 °F 18.6 °F 1013.8 in West 1.6 mph 1.6 mph 83 % 0.0 in
02:25 21.6 °F 18.8 °F 1013.8 in Calm   3.2 mph 84 % 0.0 in
02:35 21.6 °F 18.8 °F 1014.8 in NW 1.6 mph   84 % 0.0 in
02:45 21.2 °F 18.2 °F 1014.8 in NNW 1.6 mph 3.2 mph 83 % 0.0 in
02:55 21.2 °F 18.4 °F 1014.8 in East 1.6 mph 3.2 mph 84 % 0.0 in
03:05 21.1 °F 18.3 °F 1014.8 in Calm     84 % 0.0 in
03:15 21.1 °F 18.5 °F 1014.8 in ENE 1.6 mph 3.2 mph 85 % 0.0 in
03:25 21.1 °F 18.5 °F 1014.8 in ENE 1.6 mph 3.2 mph 85 % 0.0 in
03:35 21.0 °F 18.4 °F 1013.8 in Calm   4.8 mph 85 % 0.0 in
03:45 21.1 °F 18.5 °F 1013.8 in Calm   3.2 mph 85 % 0.0 in
03:55 21.1 °F 18.5 °F 1013.8 in Calm   3.2 mph 85 % 0.0 in
04:05 21.4 °F 18.8 °F 1013.8 in Calm   3.2 mph 85 % 0.0 in
04:15 21.9 °F 19.4 °F 1014.8 in Calm   1.6 mph 86 % 0.0 in
04:25 22.0 °F 19.3 °F 1014.8 in NE 1.6 mph 4.8 mph 85 % 0.0 in
04:35 22.0 °F 19.2 °F 1014.8 in ENE 1.6 mph 3.2 mph 84 % 0.0 in
04:45 22.2 °F 19.4 °F 1014.8 in NE 1.6 mph 3.2 mph 84 % 0.0 in
04:55 22.2 °F 19.2 °F 1014.8 in NE 4.8 mph 4.8 mph 83 % 0.0 in
05:05 22.5 °F 19.4 °F 1014.8 in NE 3.2 mph 4.8 mph 83 % 0.0 in
10:09 24.5 °F 20.0 °F 1014.8 in East 9.3 mph 9.3 mph 76 % 0.0 in
10:12 24.6 °F 20.1 °F 1015.8 in East 3.9 mph 4.7 mph 76 % 0.0 in
10:17 24.7 °F 20.2 °F 1015.8 in East 7.4 mph 7.4 mph 76 % 0.0 in
10:22 24.9 °F 20.4 °F 1015.8 in NNE 7.4 mph 7.4 mph 76 % 0.0 in
10:27 25.0 °F 20.3 °F 1015.8 in NE 7.4 mph 7.4 mph 75 % 0.0 in
10:32 25.3 °F 20.6 °F 1015.8 in NNE 5.6 mph 5.6 mph 75 % 0.0 in
10:37 25.7 °F 20.7 °F 1015.8 in ESE 9.3 mph 9.3 mph 74 % 0.0 in
10:42 25.7 °F 20.5 °F 1015.8 in East 9.3 mph 9.3 mph 73 % 0.0 in
10:47 25.7 °F 20.5 °F 1015.8 in ENE 13.0 mph 13.0 mph 73 % 0.0 in
10:52 25.9 °F 20.4 °F 1015.8 in ESE 11.1 mph 11.1 mph 72 % 0.0 in
10:57 26.5 °F 21.1 °F 1015.8 in ESE 7.9 mph 7.9 mph 72 % 0.0 in
11:02 27.0 °F 21.1 °F 1015.8 in East 9.3 mph 9.3 mph 70 % 0.0 in
11:07 27.1 °F 20.9 °F 1015.8 in ESE 7.4 mph 7.4 mph 69 % 0.0 in
11:12 27.4 °F 20.7 °F 1015.8 in SE 7.9 mph 7.9 mph 67 % 0.0 in
11:17 27.1 °F 20.4 °F 1015.8 in South 13.0 mph 13.0 mph 67 % 0.0 in
11:22 27.8 °F 21.1 °F 1015.8 in ENE 7.4 mph 7.4 mph 67 % 0.0 in
11:27 27.4 °F 20.7 °F 1015.8 in ESE 5.6 mph 5.6 mph 67 % 0.0 in
11:32 27.7 °F 20.8 °F 1015.8 in ESE 13.0 mph 13.0 mph 66 % 0.0 in
11:37 27.5 °F 20.6 °F 1015.8 in East 10.0 mph 10.0 mph 66 % 0.0 in
11:42 27.7 °F 20.5 °F 1015.8 in NE 9.3 mph 9.3 mph 65 % 0.0 in
11:47 27.6 °F 20.4 °F 1015.8 in ENE 5.6 mph 5.6 mph 65 % 0.0 in
11:52 28.0 °F 20.6 °F 1015.8 in East 9.3 mph 9.3 mph 64 % 0.0 in
11:57 27.9 °F 20.7 °F 1015.8 in ESE 9.3 mph 9.3 mph 65 % 0.0 in
12:02 28.3 °F 20.8 °F 1015.8 in ENE 7.4 mph 7.4 mph 64 % 0.0 in
12:07 28.5 °F 21.0 °F 1015.8 in NE 10.0 mph 10.0 mph 64 % 0.0 in
12:12 28.6 °F 20.9 °F 1015.8 in ESE 9.3 mph 9.3 mph 63 % 0.0 in
12:22 29.0 °F 21.0 °F 1015.8 in NE 9.3 mph 9.5 mph 62 % 0.0 in
12:27 28.7 °F 20.9 °F 1014.8 in ENE 9.3 mph 9.3 mph 63 % 0.0 in
12:32 28.6 °F 20.6 °F 1014.8 in SE 7.4 mph 7.4 mph 62 % 0.0 in
12:37 29.5 °F 20.9 °F 1014.8 in East 11.1 mph 11.1 mph 60 % 0.0 in
12:42 28.9 °F 20.6 °F 1014.8 in East 11.4 mph 11.4 mph 61 % 0.0 in
12:47 28.9 °F 20.6 °F 1014.8 in East 13.0 mph 13.0 mph 61 % 0.0 in
12:52 29.2 °F 20.4 °F 1014.8 in East 9.3 mph 9.3 mph 59 % 0.0 in
12:57 29.2 °F 20.6 °F 1014.8 in ESE 7.4 mph 7.4 mph 60 % 0.0 in
13:02 29.0 °F 20.4 °F 1014.8 in NE 9.3 mph 9.3 mph 60 % 0.0 in
13:07 29.0 °F 20.4 °F 1014.8 in East 3.9 mph 4.2 mph 60 % 0.0 in
13:12 28.8 °F 20.6 °F 1014.8 in ENE 9.3 mph 9.3 mph 61 % 0.0 in
13:17 28.7 °F 20.4 °F 1014.8 in East 9.0 mph 9.0 mph 61 % 0.0 in
13:22 29.0 °F 20.4 °F 1014.8 in ENE 5.6 mph 5.6 mph 60 % 0.0 in
13:27 29.7 °F 20.8 °F 1014.8 in ESE 9.3 mph 9.3 mph 59 % 0.0 in
13:32 29.5 °F 20.4 °F 1014.8 in ESE 16.7 mph 16.7 mph 58 % 0.0 in
13:37 29.5 °F 20.7 °F 1014.8 in ENE 7.4 mph 7.4 mph 59 % 0.0 in
13:42 30.0 °F 20.8 °F 1014.8 in ESE 5.3 mph 5.3 mph 58 % 0.0 in
13:47 30.1 °F 20.9 °F 1014.8 in ESE 7.4 mph 7.4 mph 58 % 0.0 in
13:52 30.6 °F 21.1 °F 1014.8 in NNE 9.3 mph 9.3 mph 57 % 0.0 in
13:57 30.6 °F 21.1 °F 1014.8 in ENE 5.6 mph 5.6 mph 57 % 0.0 in
14:02 30.9 °F 21.1 °F 1014.8 in ESE 5.6 mph 5.6 mph 56 % 0.0 in
14:07 31.5 °F 21.1 °F 1014.8 in East 7.4 mph 7.4 mph 54 % 0.0 in
14:12 31.0 °F 20.3 °F 1013.8 in ESE 5.6 mph 5.6 mph 53 % 0.0 in
14:17 30.9 °F 20.5 °F 1013.8 in ESE 9.3 mph 9.3 mph 54 % 0.0 in
14:22 31.2 °F 20.8 °F 1013.8 in ENE 7.4 mph 7.4 mph 54 % 0.0 in
14:27 30.6 °F 19.9 °F 1013.8 in ESE 13.0 mph 13.0 mph 53 % 0.0 in
14:32 31.3 °F 20.6 °F 1013.8 in ENE 5.6 mph 5.6 mph 53 % 0.0 in
14:37 31.3 °F 20.6 °F 1013.8 in ESE 6.1 mph 6.1 mph 53 % 0.0 in
14:42 31.2 °F 19.9 °F 1013.8 in ENE 11.1 mph 11.1 mph 51 % 0.0 in
14:47 31.2 °F 19.9 °F 1013.8 in ESE 14.8 mph 14.8 mph 51 % 0.0 in
14:52 31.3 °F 20.3 °F 1013.8 in ESE 13.0 mph 13.0 mph 52 % 0.0 in
14:57 31.3 °F 19.9 °F 1013.8 in ENE 13.0 mph 13.0 mph 51 % 0.0 in
15:02 31.4 °F 19.7 °F 1013.8 in SE 13.0 mph 13.0 mph 50 % 0.0 in
15:07 31.4 °F 19.7 °F 1013.8 in ENE 13.0 mph 13.0 mph 50 % 0.0 in
15:12 31.6 °F 19.9 °F 1013.8 in NE 13.0 mph 13.0 mph 50 % 0.0 in
15:17 31.5 °F 19.5 °F 1013.8 in ESE 14.8 mph 14.8 mph 49 % 0.0 in
15:22 31.6 °F 19.9 °F 1013.8 in ESE 13.0 mph 13.0 mph 50 % 0.0 in
15:27 31.6 °F 19.9 °F 1013.8 in South 14.0 mph 14.0 mph 50 % 0.0 in
15:32 31.4 °F 19.4 °F 1013.8 in East 13.0 mph 13.0 mph 49 % 0.0 in
15:37 31.8 °F 19.8 °F 1013.8 in ESE 11.1 mph 11.1 mph 49 % 0.0 in
15:42 31.5 °F 19.5 °F 1013.8 in SE 13.0 mph 13.0 mph 49 % 0.0 in
15:47 31.5 °F 19.5 °F 1013.8 in ESE 13.0 mph 13.0 mph 49 % 0.0 in
15:52 31.7 °F 19.7 °F 1013.8 in SE 10.0 mph 10.0 mph 49 % 0.0 in
15:57 31.5 °F 19.5 °F 1013.8 in NE 13.0 mph 13.0 mph 49 % 0.0 in
16:02 31.5 °F 19.8 °F 1013.8 in ESE 12.6 mph 12.6 mph 50 % 0.0 in
16:07 30.9 °F 19.6 °F 1013.8 in East 13.0 mph 13.0 mph 51 % 0.0 in
16:12 30.8 °F 19.8 °F 1012.8 in ENE 11.1 mph 11.1 mph 52 % 0.0 in
16:17 30.5 °F 19.6 °F 1012.8 in ENE 16.9 mph 16.9 mph 52 % 0.0 in
16:22 30.1 °F 19.4 °F 1012.8 in ESE 14.8 mph 14.8 mph 53 % 0.0 in
16:27 29.8 °F 19.5 °F 1012.8 in SE 11.4 mph 11.4 mph 54 % 0.0 in
16:32 30.1 °F 19.8 °F 1012.8 in ESE 13.0 mph 13.0 mph 54 % 0.0 in
16:37 29.9 °F 19.6 °F 1012.8 in ESE 13.0 mph 13.0 mph 54 % 0.0 in
16:42 30.0 °F 20.0 °F 1013.8 in East 14.8 mph 14.8 mph 55 % 0.0 in
16:47 30.0 °F 20.0 °F 1013.8 in SSE 16.7 mph 16.7 mph 55 % 0.0 in
16:52 30.0 °F 20.3 °F 1013.8 in East 16.7 mph 16.7 mph 56 % 0.0 in
16:57 30.4 °F 20.3 °F 1013.8 in ESE 11.1 mph 11.1 mph 55 % 0.0 in
17:02 30.8 °F 20.7 °F 1013.8 in SW 5.6 mph 5.6 mph 55 % 0.0 in
17:07 31.0 °F 20.9 °F 1013.8 in WSW 9.3 mph 9.3 mph 55 % 0.0 in
17:12 30.7 °F 20.9 °F 1013.8 in SW 10.0 mph 10.0 mph 56 % 0.0 in
17:17 30.3 °F 20.6 °F 1013.8 in SW 10.3 mph 10.3 mph 56 % 0.0 in
17:22 30.0 °F 20.6 °F 1013.8 in South 9.5 mph 9.5 mph 57 % 0.0 in
17:27 30.0 °F 20.6 °F 1013.8 in SW 11.1 mph 11.1 mph 57 % 0.0 in
17:32 30.3 °F 20.8 °F 1013.8 in SSW 11.1 mph 11.1 mph 57 % 0.0 in
17:37 29.8 °F 20.4 °F 1013.8 in SW 22.2 mph 22.2 mph 57 % 0.0 in
17:38 29.8 °F 20.4 °F 1013.8 in SW 14.8 mph 14.8 mph 57 % 0.0 in
17:43 29.5 °F 20.4 °F 1013.8 in SW 12.6 mph 12.6 mph 58 % 0.0 in
17:48 29.4 °F 20.3 °F 1013.8 in SW 14.8 mph 14.8 mph 58 % 0.0 in
17:53 29.6 °F 20.4 °F 1013.8 in SW 17.2 mph 17.2 mph 58 % 0.0 in
17:58 29.4 °F 20.3 °F 1013.8 in SW 13.0 mph 13.0 mph 58 % 0.0 in
18:03 29.0 °F 19.9 °F 1013.8 in SW 14.8 mph 14.8 mph 58 % 0.0 in
18:08 28.9 °F 20.3 °F 1013.8 in SSW 13.0 mph 13.0 mph 60 % 0.0 in
18:13 29.1 °F 20.3 °F 1013.8 in SW 14.8 mph 14.8 mph 59 % 0.0 in
18:18 28.8 °F 20.3 °F 1013.8 in West 20.4 mph 20.4 mph 60 % 0.0 in
18:23 28.6 °F 20.3 °F 1013.8 in SW 9.3 mph 9.3 mph 61 % 0.0 in
18:28 28.5 °F 20.2 °F 1012.8 in SW 9.3 mph 9.3 mph 61 % 0.0 in
18:33 28.0 °F 19.8 °F 1012.8 in WSW 16.7 mph 16.7 mph 61 % 0.0 in
18:38 27.6 °F 19.7 °F 1012.8 in SW 18.5 mph 18.5 mph 62 % 0.0 in
18:43 27.4 °F 19.7 °F 1013.8 in West 16.7 mph 16.7 mph 63 % 0.0 in
18:48 27.0 °F 19.3 °F 1013.8 in SW 13.0 mph 13.0 mph 63 % 0.0 in
18:53 26.8 °F 19.4 °F 1013.8 in SW 13.0 mph 13.0 mph 64 % 0.0 in
18:58 26.7 °F 19.6 °F 1013.8 in West 9.3 mph 9.3 mph 65 % 0.0 in
19:03 26.7 °F 19.6 °F 1013.8 in WSW 9.3 mph 9.3 mph 65 % 0.0 in
19:08 26.5 °F 19.6 °F 1013.8 in SW 16.7 mph 16.7 mph 66 % 0.0 in
19:13 26.4 °F 19.6 °F 1013.8 in SSW 16.7 mph 16.7 mph 66 % 0.0 in
19:18 26.3 °F 19.4 °F 1013.8 in SSW 9.3 mph 9.3 mph 66 % 0.0 in
19:23 26.3 °F 19.4 °F 1013.8 in SSW 11.1 mph 11.1 mph 66 % 0.0 in
19:28 26.2 °F 19.3 °F 1012.8 in SW 15.8 mph 15.8 mph 66 % 0.0 in
19:33 26.1 °F 19.5 °F 1012.8 in SW 5.6 mph 5.6 mph 67 % 0.0 in
19:38 26.1 °F 19.5 °F 1012.8 in WSW 5.6 mph 5.6 mph 67 % 0.0 in
19:43 26.1 °F 19.5 °F 1013.8 in SW 5.6 mph 5.6 mph 67 % 0.0 in
19:48 26.1 °F 19.5 °F 1013.8 in WSW 5.6 mph 5.6 mph 67 % 0.0 in
19:50 26.0 °F 19.4 °F 1013.8 in South 7.4 mph 7.4 mph 67 % 0.0 in
19:55 26.1 °F 19.5 °F 1013.8 in SSW 5.6 mph 5.6 mph 67 % 0.0 in
20:00 26.1 °F 19.5 °F 1013.8 in WSW 3.7 mph 3.7 mph 67 % 0.0 in
20:05 26.1 °F 19.5 °F 1013.8 in ESE 1.9 mph   67 % 0.0 in
20:10 26.1 °F 19.5 °F 1013.8 in West 3.7 mph 3.7 mph 67 % 0.0 in
20:15 26.1 °F 19.5 °F 1013.8 in West 1.9 mph   67 % 0.0 in
20:16 26.1 °F 19.5 °F 1013.8 in West 1.9 mph   67 % 0.0 in
20:21 26.1 °F 19.5 °F 1013.8 in NNE 2.6 mph 2.6 mph 67 % 0.0 in
20:26 26.1 °F 19.5 °F 1014.8 in SW 3.7 mph 3.7 mph 67 % 0.0 in
20:31 25.9 °F 19.3 °F 1014.8 in West 5.6 mph 5.6 mph 67 % 0.0 in
20:36 25.8 °F 19.2 °F 1014.8 in WNW 7.4 mph 7.4 mph 67 % 0.0 in
20:41 25.9 °F 19.3 °F 1012.8 in South 5.6 mph 5.6 mph 67 % 0.0 in
20:46 26.2 °F 19.3 °F 1012.8 in West 5.6 mph 5.6 mph 66 % 0.0 in
20:51 26.4 °F 19.3 °F 1012.8 in SSW 3.7 mph   65 % 0.0 in
20:56 26.4 °F 19.3 °F 1013.8 in Calm     65 % 0.0 in
21:01 26.6 °F 19.2 °F 1013.8 in SE 2.6 mph 2.6 mph 64 % 0.0 in
21:06 26.5 °F 19.1 °F 1013.8 in SW 3.2 mph   64 % 0.0 in
21:11 26.3 °F 19.2 °F 1013.8 in WSW 3.7 mph 3.7 mph 65 % 0.0 in
21:16 26.1 °F 19.0 °F 1013.8 in WSW 1.4 mph   65 % 0.0 in
21:21 25.9 °F 18.8 °F 1013.8 in SSW 5.6 mph 5.6 mph 65 % 0.0 in
21:26 25.6 °F 18.8 °F 1013.8 in WSW 3.7 mph 3.7 mph 66 % 0.0 in
21:31 25.5 °F 18.9 °F 1013.8 in WSW 3.7 mph 3.7 mph 67 % 0.0 in
21:36 25.3 °F 18.7 °F 1013.8 in SSE 3.7 mph 3.7 mph 67 % 0.0 in
21:41 25.2 °F 18.9 °F 1013.8 in West 3.7 mph 3.7 mph 68 % 0.0 in
21:46 25.1 °F 18.6 °F 1013.8 in WSW 2.6 mph 2.6 mph 67 % 0.0 in
21:51 25.1 °F 18.8 °F 1013.8 in SSW 3.2 mph   68 % 0.0 in
21:56 25.2 °F 18.6 °F 1013.8 in West 2.3 mph   67 % 0.0 in
22:01 25.3 °F 18.5 °F 1013.8 in WSW 3.9 mph 3.9 mph 66 % 0.0 in
22:06 25.3 °F 18.2 °F 1013.8 in West 3.7 mph 3.7 mph 65 % 0.0 in
22:11 25.4 °F 18.3 °F 1013.8 in SW 3.7 mph 3.7 mph 65 % 0.0 in
22:16 25.3 °F 18.5 °F 1013.8 in SW 1.9 mph   66 % 0.0 in
22:21 25.1 °F 18.1 °F 1013.8 in SW 3.7 mph 3.7 mph 65 % 0.0 in
22:26 25.1 °F 17.8 °F 1013.8 in SW 3.7 mph 3.7 mph 64 % 0.0 in
22:31 25.0 °F 17.7 °F 1013.8 in SW 1.9 mph 1.9 mph 64 % 0.0 in
22:36 25.0 °F 17.7 °F 1013.8 in SW 3.7 mph 3.7 mph 64 % 0.0 in
22:41 24.9 °F 17.6 °F 1013.8 in WSW 3.7 mph 3.9 mph 64 % 0.0 in
22:46 24.9 °F 17.4 °F 1013.8 in WSW 2.3 mph 3.2 mph 63 % 0.0 in
22:51 24.8 °F 17.3 °F 1013.8 in SW 5.6 mph 5.6 mph 63 % 0.0 in
22:56 24.8 °F 17.3 °F 1013.8 in West 3.7 mph 3.7 mph 63 % 0.0 in
23:01 24.7 °F 16.9 °F 1013.8 in SW 1.9 mph 1.9 mph 62 % 0.0 in
23:06 24.7 °F 16.9 °F 1013.8 in WSW 3.2 mph 3.2 mph 62 % 0.0 in
23:11 24.7 °F 16.9 °F 1013.8 in WSW 3.9 mph 3.9 mph 62 % 0.0 in
23:16 24.8 °F 17.0 °F 1013.8 in WSW 3.9 mph 3.9 mph 62 % 0.0 in
23:21 24.9 °F 16.8 °F 1013.8 in WSW 7.4 mph 7.4 mph 61 % 0.0 in
23:26 24.9 °F 16.8 °F 1013.8 in West 5.6 mph 5.6 mph 61 % 0.0 in
23:31 24.8 °F 16.8 °F 1013.8 in SW 3.9 mph 3.9 mph 61 % 0.0 in
23:36 24.7 °F 16.9 °F 1013.8 in WSW 7.4 mph 7.4 mph 62 % 0.0 in
23:41 24.6 °F 17.1 °F 1013.8 in WSW 7.4 mph 7.4 mph 63 % 0.0 in
23:46 24.5 °F 17.2 °F 1013.8 in SSW 7.4 mph 7.4 mph 64 % 0.0 in
23:51 24.4 °F 17.4 °F 1013.8 in SW 5.0 mph 5.0 mph 65 % 0.0 in
23:56 24.2 °F 17.2 °F 1013.8 in South 5.6 mph 5.6 mph 65 % 0.0 in
Meteo Sesrovires
Elogis d' Weather Underground - 1.5 mb

Guio original per  Jim McMurry - jmcmurry@mwt.net Adaptat per a la plantilla per  Wim van der Kuil - Leuven-Template.eu

Trobareu la nostra informacio del temps tambe a:

Weather Underground

AWEKAS